Land O' Lakes, WI (54540)

5:43 AM CDT on July 27, 2016 (GMT -0500)
Kings Land O'Lakes | | Change Station

Elev 1706 ft 46.15 °N, 89.21 °W | Updated 8 minutes ago

Mostly Cloudy
Mostly Cloudy
62 °F
Feels Like 62 °F
N
0
Wind Variable Wind from North

Today
High -- | Low -- °F
--% Chance of Precip.
Yesterday
High -- | Low -- °F
Precip. -- in
Pressure 30.01 in
Visibility 10.0 miles
Clouds Mostly Cloudy 12000 ft
Dew Point 61 °F
Humidity 98%
Rainfall 0.00 in
Snow Depth Not available.
5:33 AM 8:32 PM
Last Quarter, 44% visible
METAR KLNL 271035Z AUTO 00000KT 10SM BKN120 17/16 A3001 RMK AO2 T01660163
Pressure 30.01 in
Visibility 10.0 miles
Clouds Mostly Cloudy 12000 ft
Dew Point 61 °F
Humidity 98%
Rainfall 0.00 in
Snow Depth Not available.
5:33 AM 8:32 PM
Last Quarter, 44% visible
METAR KLNL 271035Z AUTO 00000KT 10SM BKN120 17/16 A3001 RMK AO2 T01660163

10-Day Weather Forecast

Almanac

Astronomy

Jul. 27, 2016 Rise Set
Actual Time
Civil Twilight
Nautical Twilight
Astronomical Twilight
Moon
Length of Visible Light
Length of Day
Tomorrow will be .
, % of the Moon is Illuminated

Today's Extremes

State Highs State Lows

Community

WunderPhotos

Upload Photos

1,927,825 photos uploaded!

WunderBlog® & News

Nearby

Air Quality

  Air Quality AQ Index Pollutant
Not available.

Snow Depth

Station Depth Elevation

Earthquake Activity

City Distance Mag. Time & Date
Minimum magnitude displayed is 2.5.

Coastal Water Temperatures

Place Temperature

Stations

Nearby Weather Stations

Station Location Temp. Windchill Dew Point Humidity Wind Precip. Elev Updated Type
                   

Watches & Warnings

There are currently no watches in effect.